createdAt,value
2022-12-24T00:00:22.955Z,29.89
2022-12-24T00:01:07.812Z,29.86
2022-12-24T00:01:48.070Z,30.35
2022-12-24T00:02:28.822Z,30.85
2022-12-24T00:03:10.132Z,29.94
2022-12-24T00:03:57.782Z,29.89
2022-12-24T00:04:37.861Z,30.04
2022-12-24T00:05:18.898Z,30.02
2022-12-24T00:05:58.955Z,29.56
2022-12-24T00:06:39.783Z,29.63
2022-12-24T00:07:19.827Z,29.35
2022-12-24T00:08:00.818Z,29.66
2022-12-24T00:08:42.839Z,29.51
2022-12-24T00:09:23.732Z,29.49
2022-12-24T00:10:03.835Z,29.41
2022-12-24T00:10:44.772Z,29.39
2022-12-24T00:11:25.757Z,29.73
2022-12-24T00:12:06.726Z,29.56
2022-12-24T00:12:47.809Z,28.96
2022-12-24T00:13:28.742Z,29.31
2022-12-24T00:14:08.911Z,29.11
2022-12-24T00:14:48.738Z,29.02
2022-12-24T00:15:28.796Z,29.66
2022-12-24T00:16:09.824Z,30.15
2022-12-24T00:16:49.949Z,29.90
2022-12-24T00:17:30.810Z,29.51
2022-12-24T00:18:11.824Z,29.80
2022-12-24T00:18:51.738Z,29.86
2022-12-24T00:19:31.948Z,29.10
2022-12-24T00:20:13.722Z,29.67
2022-12-24T00:20:55.784Z,29.63
2022-12-24T00:21:35.759Z,29.31
2022-12-24T00:22:16.780Z,31.14
2022-12-24T00:22:57.734Z,31.09
2022-12-24T00:23:37.767Z,31.13
2022-12-24T00:24:17.695Z,30.79
2022-12-24T00:24:57.807Z,31.19
2022-12-24T00:25:38.711Z,31.96
2022-12-24T00:26:20.977Z,32.86
2022-12-24T00:27:01.704Z,31.75
2022-12-24T00:27:41.787Z,31.63
2022-12-24T00:28:22.749Z,32.03
2022-12-24T00:29:02.836Z,32.75
2022-12-24T00:29:43.687Z,32.91
2022-12-24T00:30:23.801Z,33.09
2022-12-24T00:31:04.761Z,34.13
2022-12-24T00:31:45.786Z,35.21
2022-12-24T00:32:26.834Z,35.46
2022-12-24T00:33:06.854Z,36.01
2022-12-24T00:33:47.735Z,42.19
2022-12-24T00:34:30.861Z,57.78
2022-12-24T00:35:11.701Z,72.13
2022-12-24T00:35:51.759Z,66.86
2022-12-24T00:36:32.758Z,66.05
2022-12-24T00:37:13.758Z,73.43
2022-12-24T00:37:55.721Z,75.38
2022-12-24T00:38:35.757Z,64.19
2022-12-24T00:39:16.695Z,55.56
2022-12-24T00:39:56.783Z,52.19
2022-12-24T00:40:37.747Z,52.53
2022-12-24T00:41:26.422Z,51.89
2022-12-24T00:42:06.693Z,48.51
2022-12-24T00:42:46.802Z,44.67
2022-12-24T00:43:26.710Z,44.13
2022-12-24T00:44:10.822Z,44.70
2022-12-24T00:44:50.715Z,40.20
2022-12-24T00:45:27.840Z,36.86
2022-12-24T00:46:15.840Z,35.78
2022-12-24T00:46:49.778Z,36.44
2022-12-24T00:47:36.713Z,34.60
2022-12-24T00:48:10.831Z,34.30
2022-12-24T00:48:52.786Z,31.38
2022-12-24T00:49:26.798Z,29.09
2022-12-24T00:50:02.331Z,28.69
2022-12-24T00:50:42.681Z,29.04
2022-12-24T00:51:16.902Z,28.63
2022-12-24T00:51:50.623Z,29.70
2022-12-24T00:52:30.658Z,28.75
2022-12-24T00:53:04.741Z,27.91
2022-12-24T00:53:38.413Z,27.64
2022-12-24T00:54:20.761Z,27.38
2022-12-24T00:54:54.755Z,27.83
2022-12-24T00:55:28.449Z,29.01
2022-12-24T00:56:09.678Z,30.09
2022-12-24T00:56:43.812Z,29.45
2022-12-24T00:57:17.467Z,29.42
2022-12-24T00:57:57.673Z,28.95
2022-12-24T00:58:31.832Z,29.77
2022-12-24T00:59:05.381Z,30.17
2022-12-24T00:59:46.708Z,30.98
2022-12-24T01:00:20.789Z,31.17
2022-12-24T01:00:54.511Z,30.29
2022-12-24T01:01:35.913Z,29.74
2022-12-24T01:02:09.957Z,29.92
2022-12-24T01:02:44.771Z,29.91
2022-12-24T01:03:25.734Z,30.16
2022-12-24T01:04:20.504Z,29.76
2022-12-24T01:05:18.724Z,29.79
2022-12-24T01:05:58.728Z,29.75
2022-12-24T01:06:38.682Z,29.76
2022-12-24T01:07:19.135Z,29.08
2022-12-24T01:08:00.676Z,28.48
2022-12-24T01:08:42.730Z,28.55
2022-12-24T01:09:22.685Z,28.56
2022-12-24T01:10:03.759Z,27.50
2022-12-24T01:10:44.743Z,27.89
2022-12-24T01:11:25.729Z,28.45
2022-12-24T01:12:05.675Z,28.52
2022-12-24T01:12:45.755Z,28.08
2022-12-24T01:13:28.330Z,27.49
2022-12-24T01:14:08.720Z,28.29
2022-12-24T01:14:49.686Z,28.30
2022-12-24T01:15:29.767Z,28.24
2022-12-24T01:16:10.744Z,29.01
2022-12-24T01:16:50.736Z,28.58
2022-12-24T01:17:30.648Z,28.15
2022-12-24T01:18:10.693Z,28.09
2022-12-24T01:18:50.684Z,29.02
2022-12-24T01:19:31.731Z,28.52
2022-12-24T01:20:15.694Z,27.74
2022-12-24T01:21:08.964Z,28.19
2022-12-24T01:21:48.708Z,28.00
2022-12-24T01:22:28.739Z,27.60
2022-12-24T01:23:08.669Z,27.54
2022-12-24T01:23:50.129Z,28.17
2022-12-24T01:24:30.676Z,28.24
2022-12-24T01:25:11.973Z,27.83
2022-12-24T01:25:53.674Z,27.30
2022-12-24T01:26:33.830Z,27.42
2022-12-24T01:27:14.701Z,28.08
2022-12-24T01:27:54.723Z,27.56
2022-12-24T01:28:34.668Z,27.91
2022-12-24T01:29:15.693Z,27.95
2022-12-24T01:29:55.643Z,27.99
2022-12-24T01:30:35.756Z,28.11
2022-12-24T01:31:24.821Z,29.10
2022-12-24T01:32:04.740Z,29.84
2022-12-24T01:32:44.661Z,29.96
2022-12-24T01:33:24.729Z,30.95
2022-12-24T01:34:05.654Z,31.06
2022-12-24T01:34:45.677Z,31.29
2022-12-24T01:35:25.686Z,32.13
2022-12-24T01:36:10.961Z,32.59
2022-12-24T01:36:51.647Z,33.76
2022-12-24T01:37:32.710Z,33.38
2022-12-24T01:38:12.629Z,32.16
2022-12-24T01:38:52.712Z,32.70
2022-12-24T01:39:33.626Z,33.40
2022-12-24T01:40:34.261Z,33.78
2022-12-24T01:41:41.690Z,32.60
2022-12-24T01:42:47.502Z,32.30
2022-12-24T01:43:34.701Z,32.34
2022-12-24T01:44:36.995Z,31.83
2022-12-24T01:46:06.646Z,31.96
2022-12-24T01:46:46.828Z,31.88
2022-12-24T01:47:34.620Z,31.26
2022-12-24T01:48:22.736Z,31.48
2022-12-24T01:49:10.627Z,31.70
2022-12-24T01:50:10.697Z,30.90
2022-12-24T01:50:51.639Z,30.50
2022-12-24T01:52:11.786Z,30.39
2022-12-24T01:52:51.648Z,30.61
2022-12-24T01:53:31.673Z,31.54
2022-12-24T01:54:36.640Z,31.63
2022-12-24T01:55:22.743Z,30.21
2022-12-24T01:56:02.610Z,29.50
2022-12-24T01:56:45.679Z,30.04
2022-12-24T01:57:31.649Z,29.64
2022-12-24T01:58:13.916Z,29.74
2022-12-24T01:58:57.615Z,30.36
2022-12-24T01:59:46.694Z,29.96
2022-12-24T02:00:21.565Z,29.55
2022-12-24T02:01:08.732Z,29.26
2022-12-24T02:01:42.539Z,29.71
2022-12-24T02:02:30.788Z,29.31
2022-12-24T02:03:05.658Z,29.26
2022-12-24T02:03:52.687Z,29.25
2022-12-24T02:04:42.298Z,29.05
2022-12-24T02:05:31.655Z,28.75
2022-12-24T02:06:06.666Z,28.69
2022-12-24T02:06:40.316Z,28.36
2022-12-24T02:07:21.602Z,28.24
2022-12-24T02:07:56.796Z,28.40
2022-12-24T02:08:39.962Z,27.99
2022-12-24T02:09:21.601Z,27.70
2022-12-24T02:09:57.700Z,27.99
2022-12-24T02:10:31.453Z,27.81
2022-12-24T02:11:27.673Z,28.30
2022-12-24T02:12:01.828Z,28.17
2022-12-24T02:12:49.597Z,27.39
2022-12-24T02:13:26.845Z,27.52
2022-12-24T02:14:15.625Z,27.79
2022-12-24T02:14:49.700Z,28.16
2022-12-24T02:16:16.640Z,27.71
2022-12-24T02:17:32.622Z,27.89
2022-12-24T02:18:53.599Z,29.20
2022-12-24T02:20:24.621Z,30.06
2022-12-24T02:21:52.608Z,29.90
2022-12-24T02:23:39.642Z,29.20
2022-12-24T02:25:14.595Z,29.71
2022-12-24T02:26:46.571Z,29.92
2022-12-24T02:27:53.608Z,30.59
2022-12-24T02:29:15.609Z,30.23
2022-12-24T02:30:21.605Z,29.84
2022-12-24T02:31:22.660Z,29.39
2022-12-24T02:32:41.628Z,29.16
2022-12-24T02:34:11.607Z,29.14
2022-12-24T02:35:01.607Z,29.29
2022-12-24T02:35:58.716Z,29.61
2022-12-24T02:36:49.564Z,31.91
2022-12-24T02:37:38.727Z,37.06
2022-12-24T02:38:38.585Z,44.42
2022-12-24T02:39:45.661Z,48.74
2022-12-24T02:40:36.573Z,45.50
2022-12-24T02:42:02.588Z,43.11
2022-12-24T02:42:48.522Z,42.38
2022-12-24T02:43:32.647Z,41.85
2022-12-24T02:44:13.593Z,38.46
2022-12-24T02:45:06.654Z,32.65
2022-12-24T02:45:53.720Z,31.63
2022-12-24T02:46:38.748Z,28.66
2022-12-24T02:47:21.600Z,28.35
2022-12-24T02:48:02.642Z,28.36
2022-12-24T02:48:44.520Z,28.19
2022-12-24T02:49:24.629Z,28.04
2022-12-24T02:50:08.530Z,26.55
2022-12-24T02:51:12.591Z,25.77
2022-12-24T02:52:06.577Z,25.42
2022-12-24T02:53:01.530Z,24.46
2022-12-24T02:53:55.561Z,24.09
2022-12-24T02:54:49.530Z,24.35
2022-12-24T02:55:57.560Z,25.09
2022-12-24T02:57:01.582Z,25.90
2022-12-24T02:58:16.633Z,26.64
2022-12-24T02:59:40.533Z,27.27
2022-12-24T03:00:25.812Z,27.29
2022-12-24T03:01:24.577Z,27.48
2022-12-24T03:02:38.073Z,26.63
2022-12-24T03:03:49.584Z,26.24
2022-12-24T03:05:21.566Z,25.46
2022-12-24T03:06:37.540Z,23.59
2022-12-24T03:08:07.553Z,22.27
2022-12-24T03:09:20.495Z,22.20
2022-12-24T03:10:26.544Z,21.61
2022-12-24T03:11:24.571Z,20.69
2022-12-24T03:12:30.535Z,19.83
2022-12-24T03:13:29.542Z,19.01
2022-12-24T03:14:23.518Z,20.10
2022-12-24T03:15:19.532Z,21.65
2022-12-24T03:16:14.605Z,21.46
2022-12-24T03:17:11.550Z,20.58
2022-12-24T03:18:09.524Z,20.84
2022-12-24T03:18:54.569Z,24.40
2022-12-24T03:19:36.701Z,26.64
2022-12-24T03:20:18.527Z,25.96
2022-12-24T03:21:14.669Z,24.99
2022-12-24T03:21:55.512Z,22.45
2022-12-24T03:22:39.706Z,20.73
2022-12-24T03:23:20.523Z,22.00
2022-12-24T03:24:08.541Z,23.17
2022-12-24T03:25:02.539Z,22.69
2022-12-24T03:25:58.557Z,22.31
2022-12-24T03:26:45.608Z,21.15
2022-12-24T03:27:25.514Z,21.10
2022-12-24T03:28:07.591Z,22.01
2022-12-24T03:28:49.529Z,22.02
2022-12-24T03:29:29.551Z,22.11
2022-12-24T03:30:04.639Z,22.10
2022-12-24T03:30:55.548Z,22.52
2022-12-24T03:31:30.607Z,22.34
2022-12-24T03:32:17.503Z,21.56
2022-12-24T03:32:51.608Z,21.04
2022-12-24T03:33:38.489Z,20.44
2022-12-24T03:34:12.600Z,20.21
2022-12-24T03:34:52.525Z,19.99
2022-12-24T03:35:32.670Z,19.25
2022-12-24T03:36:14.517Z,18.44
2022-12-24T03:36:55.653Z,18.10
2022-12-24T03:37:36.545Z,18.25
2022-12-24T03:38:16.663Z,17.90
2022-12-24T03:38:56.519Z,17.63
2022-12-24T03:39:37.599Z,17.61
2022-12-24T03:40:18.518Z,17.73
2022-12-24T03:40:58.633Z,17.92
2022-12-24T03:41:38.566Z,16.85
2022-12-24T03:42:21.517Z,16.04
2022-12-24T03:43:01.514Z,15.81
2022-12-24T03:43:41.564Z,16.27
2022-12-24T03:44:22.519Z,16.30
2022-12-24T03:45:02.609Z,15.75
2022-12-24T03:45:43.691Z,16.33
2022-12-24T03:46:23.595Z,16.29
2022-12-24T03:47:03.512Z,15.69
2022-12-24T03:47:43.571Z,14.90
2022-12-24T03:48:29.017Z,14.69
2022-12-24T03:49:12.577Z,14.74
2022-12-24T03:49:53.506Z,14.24
2022-12-24T03:50:33.591Z,14.18
2022-12-24T03:51:25.528Z,14.20
2022-12-24T03:52:05.586Z,14.02
2022-12-24T03:52:45.511Z,14.11
2022-12-24T03:53:25.568Z,14.34
2022-12-24T03:54:06.472Z,14.57
2022-12-24T03:54:46.562Z,14.41
2022-12-24T03:55:26.466Z,14.93
2022-12-24T03:56:06.539Z,15.40
2022-12-24T03:56:46.502Z,15.73
2022-12-24T03:57:26.590Z,15.60
2022-12-24T03:58:06.484Z,15.94
2022-12-24T03:58:47.998Z,16.25
2022-12-24T03:59:28.506Z,17.71
2022-12-24T04:00:11.712Z,19.48
2022-12-24T04:00:51.510Z,19.94
2022-12-24T04:01:32.155Z,20.61
2022-12-24T04:02:13.625Z,20.39
2022-12-24T04:02:54.773Z,19.71
2022-12-24T04:03:34.489Z,19.56
2022-12-24T04:04:14.627Z,19.14
2022-12-24T04:04:54.488Z,18.69
2022-12-24T04:05:34.586Z,18.61
2022-12-24T04:06:18.492Z,17.77
2022-12-24T04:06:58.530Z,16.76
2022-12-24T04:07:40.499Z,16.95
2022-12-24T04:08:20.526Z,18.36
2022-12-24T04:09:00.472Z,18.23
2022-12-24T04:09:40.645Z,17.63
2022-12-24T04:10:22.494Z,16.29
2022-12-24T04:11:09.334Z,15.11
2022-12-24T04:11:50.474Z,14.86
2022-12-24T04:12:30.525Z,15.32
2022-12-24T04:13:10.496Z,15.32
2022-12-24T04:13:50.538Z,15.21
2022-12-24T04:14:30.470Z,14.88
2022-12-24T04:15:11.583Z,15.09
2022-12-24T04:15:51.462Z,14.65
2022-12-24T04:16:32.637Z,14.71
2022-12-24T04:17:13.502Z,15.07
2022-12-24T04:17:53.622Z,14.60
2022-12-24T04:18:34.477Z,13.82
2022-12-24T04:19:14.539Z,13.46
2022-12-24T04:19:55.464Z,13.40
2022-12-24T04:20:35.907Z,13.70
2022-12-24T04:21:16.642Z,13.41
2022-12-24T04:21:56.559Z,13.26
2022-12-24T04:22:36.460Z,13.91
2022-12-24T04:23:16.559Z,14.63
2022-12-24T04:23:57.500Z,15.21
2022-12-24T04:24:37.555Z,15.11
2022-12-24T04:25:18.461Z,15.41
2022-12-24T04:25:59.593Z,15.57
2022-12-24T04:26:39.456Z,16.10
2022-12-24T04:27:28.397Z,17.38
2022-12-24T04:28:11.474Z,18.65
2022-12-24T04:28:51.572Z,19.26
2022-12-24T04:29:32.471Z,20.21
2022-12-24T04:30:15.585Z,20.52
2022-12-24T04:30:55.458Z,20.48
2022-12-24T04:31:35.614Z,20.31
2022-12-24T04:32:16.558Z,20.29
2022-12-24T04:32:56.515Z,19.16
2022-12-24T04:33:37.464Z,18.41
2022-12-24T04:34:17.584Z,18.45
2022-12-24T04:34:57.476Z,19.13
2022-12-24T04:35:37.529Z,19.41
2022-12-24T04:36:21.462Z,18.41
2022-12-24T04:37:01.526Z,17.76
2022-12-24T04:37:42.457Z,18.44
2022-12-24T04:38:22.523Z,18.35
2022-12-24T04:39:03.427Z,18.35
2022-12-24T04:39:43.702Z,17.44
2022-12-24T04:40:23.463Z,17.11
2022-12-24T04:41:24.324Z,16.95
2022-12-24T04:42:04.448Z,16.83
2022-12-24T04:42:44.747Z,16.86
2022-12-24T04:43:25.431Z,17.24
2022-12-24T04:44:06.655Z,17.33
2022-12-24T04:44:46.466Z,16.88
2022-12-24T04:45:34.565Z,17.38
2022-12-24T04:46:32.431Z,17.75
2022-12-24T04:47:26.467Z,17.23
2022-12-24T04:48:20.433Z,18.14
2022-12-24T04:49:14.430Z,18.08
2022-12-24T04:50:08.489Z,17.80
2022-12-24T04:50:55.468Z,17.36
2022-12-24T04:51:30.582Z,17.77
2022-12-24T04:52:17.439Z,17.69
2022-12-24T04:52:51.757Z,17.73
2022-12-24T04:53:39.445Z,17.38
2022-12-24T04:54:13.577Z,17.00
2022-12-24T04:55:01.438Z,17.40
2022-12-24T04:55:35.610Z,17.49
2022-12-24T04:56:38.495Z,17.70
2022-12-24T04:57:19.583Z,17.91
2022-12-24T04:58:00.437Z,18.29
2022-12-24T04:58:41.490Z,18.79
2022-12-24T04:59:21.426Z,18.86
2022-12-24T05:00:01.503Z,18.10
2022-12-24T05:00:41.442Z,17.45
2022-12-24T05:01:26.651Z,16.84
2022-12-24T05:02:07.532Z,17.01
2022-12-24T05:02:47.606Z,17.35
2022-12-24T05:03:28.513Z,17.13
2022-12-24T05:04:08.744Z,17.10
2022-12-24T05:04:48.422Z,16.64
2022-12-24T05:05:28.475Z,16.50
2022-12-24T05:06:14.409Z,16.09
2022-12-24T05:06:54.493Z,16.23
2022-12-24T05:07:34.421Z,19.89
2022-12-24T05:08:14.527Z,24.35
2022-12-24T05:08:55.427Z,26.02
2022-12-24T05:09:35.506Z,27.08
2022-12-24T05:10:17.445Z,25.84
2022-12-24T05:11:05.483Z,23.52
2022-12-24T05:11:46.406Z,20.08
2022-12-24T05:12:26.469Z,16.79
2022-12-24T05:13:07.491Z,15.74
2022-12-24T05:13:51.521Z,15.52
2022-12-24T05:14:31.444Z,15.80
2022-12-24T05:15:12.563Z,16.51
2022-12-24T05:15:52.423Z,18.95
2022-12-24T05:16:32.459Z,22.40
2022-12-24T05:17:13.495Z,24.44
2022-12-24T05:17:53.495Z,25.40
2022-12-24T05:18:33.428Z,26.15
2022-12-24T05:19:13.448Z,27.41
2022-12-24T05:19:54.396Z,26.71
2022-12-24T05:20:34.509Z,27.24
2022-12-24T05:21:17.412Z,25.76
2022-12-24T05:22:16.052Z,24.59
2022-12-24T05:23:15.444Z,24.49
2022-12-24T05:24:14.421Z,23.13
2022-12-24T05:25:06.738Z,22.04
2022-12-24T05:26:12.386Z,21.58
2022-12-24T05:26:59.528Z,20.86
2022-12-24T05:27:51.110Z,20.08
2022-12-24T05:28:25.488Z,19.19
2022-12-24T05:29:13.400Z,19.25
2022-12-24T05:29:54.384Z,19.36
2022-12-24T05:30:48.516Z,18.73
2022-12-24T05:31:46.413Z,18.89
2022-12-24T05:32:40.418Z,19.38
2022-12-24T05:33:34.413Z,19.51
2022-12-24T05:34:30.428Z,19.67
2022-12-24T05:35:24.414Z,18.96
2022-12-24T05:36:19.388Z,18.30
2022-12-24T05:37:13.400Z,18.27
2022-12-24T05:38:12.413Z,18.88
2022-12-24T05:39:11.624Z,18.79
2022-12-24T05:39:56.430Z,18.84
2022-12-24T05:40:36.531Z,18.69
2022-12-24T05:41:17.404Z,18.60
2022-12-24T05:41:57.481Z,18.63
2022-12-24T05:42:37.404Z,18.70
2022-12-24T05:43:17.462Z,18.55
2022-12-24T05:43:58.364Z,18.71
2022-12-24T05:44:38.471Z,18.26
2022-12-24T05:45:19.383Z,18.86
2022-12-24T05:46:08.467Z,19.86
2022-12-24T05:46:49.385Z,19.98
2022-12-24T05:47:29.435Z,19.86
2022-12-24T05:48:09.375Z,20.01
2022-12-24T05:48:49.460Z,20.26
2022-12-24T05:49:29.380Z,20.70
2022-12-24T05:50:09.448Z,20.14
2022-12-24T05:50:49.373Z,20.46
2022-12-24T05:51:30.457Z,21.06
2022-12-24T05:52:11.384Z,20.42
2022-12-24T05:52:52.485Z,20.74
2022-12-24T05:53:32.445Z,21.59
2022-12-24T05:54:13.597Z,21.69
2022-12-24T05:54:53.367Z,21.84
2022-12-24T05:55:33.482Z,22.10
2022-12-24T05:56:23.376Z,22.08
2022-12-24T05:57:03.442Z,22.50
2022-12-24T05:57:43.407Z,23.45
2022-12-24T05:58:23.532Z,23.48
2022-12-24T05:59:04.361Z,22.98
2022-12-24T05:59:44.466Z,22.10
2022-12-24T06:00:25.378Z,22.23
2022-12-24T06:01:05.599Z,22.50
2022-12-24T06:01:45.496Z,22.27
2022-12-24T06:02:25.620Z,22.17
2022-12-24T06:03:05.436Z,21.59
2022-12-24T06:03:46.624Z,20.80
2022-12-24T06:04:29.324Z,20.95
2022-12-24T06:05:11.738Z,21.21
2022-12-24T06:05:51.387Z,21.05
2022-12-24T06:06:34.563Z,21.05
2022-12-24T06:07:15.419Z,21.05
2022-12-24T06:07:55.463Z,20.65
2022-12-24T06:08:37.347Z,20.65
2022-12-24T06:09:17.688Z,21.17
2022-12-24T06:09:57.370Z,21.56
2022-12-24T06:10:37.529Z,21.89
2022-12-24T06:11:22.414Z,22.27
2022-12-24T06:12:02.464Z,23.04
2022-12-24T06:12:43.515Z,24.31
2022-12-24T06:13:24.431Z,24.36
2022-12-24T06:14:04.348Z,24.70
2022-12-24T06:14:44.431Z,25.66
2022-12-24T06:15:25.356Z,27.08
2022-12-24T06:16:07.517Z,27.96
2022-12-24T06:16:48.367Z,27.98
2022-12-24T06:17:28.472Z,27.92
2022-12-24T06:18:08.428Z,27.65
2022-12-24T06:18:49.446Z,27.69
2022-12-24T06:19:30.364Z,27.46
2022-12-24T06:20:12.525Z,27.80
2022-12-24T06:20:53.348Z,26.77
2022-12-24T06:21:33.429Z,26.29
2022-12-24T06:22:14.350Z,26.19
2022-12-24T06:22:54.604Z,25.95
2022-12-24T06:23:38.367Z,25.49
2022-12-24T06:24:18.411Z,26.09
2022-12-24T06:24:59.353Z,25.64
2022-12-24T06:25:39.451Z,24.86
2022-12-24T06:26:26.349Z,23.48
2022-12-24T06:27:07.455Z,23.15
2022-12-24T06:27:48.413Z,22.70
2022-12-24T06:28:28.609Z,22.46
2022-12-24T06:29:09.371Z,23.11
2022-12-24T06:29:49.611Z,24.06
2022-12-24T06:30:31.408Z,23.91
2022-12-24T06:31:13.675Z,23.95
2022-12-24T06:31:54.368Z,24.69
2022-12-24T06:32:34.626Z,24.86
2022-12-24T06:33:15.353Z,25.29
2022-12-24T06:33:55.514Z,25.23
2022-12-24T06:34:35.356Z,24.27
2022-12-24T06:35:15.370Z,23.84
2022-12-24T06:35:55.319Z,23.80
2022-12-24T06:36:35.473Z,22.83
2022-12-24T06:37:24.322Z,22.42
2022-12-24T06:38:04.388Z,22.34
2022-12-24T06:38:44.328Z,22.33
2022-12-24T06:39:24.394Z,21.81
2022-12-24T06:40:04.334Z,21.73
2022-12-24T06:40:49.427Z,21.21
2022-12-24T06:41:30.326Z,20.79
2022-12-24T06:42:10.454Z,20.75
2022-12-24T06:42:50.294Z,20.89
2022-12-24T06:43:30.534Z,20.65
2022-12-24T06:44:11.303Z,20.33
2022-12-24T06:44:51.720Z,19.55
2022-12-24T06:45:32.400Z,19.49
2022-12-24T06:46:12.665Z,19.99
2022-12-24T06:46:53.358Z,19.75
2022-12-24T06:47:33.439Z,19.39
2022-12-24T06:48:14.310Z,19.09
2022-12-24T06:48:55.443Z,18.96
2022-12-24T06:49:36.342Z,18.84
2022-12-24T06:50:16.464Z,19.04
2022-12-24T06:50:56.323Z,18.92
2022-12-24T06:51:30.102Z,19.00
2022-12-24T06:52:18.338Z,18.88
2022-12-24T06:52:52.568Z,19.27
2022-12-24T06:53:46.333Z,19.75
2022-12-24T06:54:40.292Z,20.16
2022-12-24T06:55:34.299Z,22.08
2022-12-24T06:56:21.345Z,24.48
2022-12-24T06:56:57.864Z,26.00
2022-12-24T06:57:48.279Z,25.45
2022-12-24T06:58:24.450Z,44.08
2022-12-24T06:59:11.350Z,36.84
2022-12-24T06:59:45.392Z,22.91
2022-12-24T07:00:33.314Z,21.33
2022-12-24T07:01:12.477Z,20.45
2022-12-24T07:01:53.413Z,20.13
2022-12-24T07:02:34.607Z,19.73
2022-12-24T07:03:15.358Z,19.54
2022-12-24T07:03:55.589Z,19.79
2022-12-24T07:04:36.351Z,19.64
2022-12-24T07:05:18.559Z,18.76
2022-12-24T07:05:59.326Z,17.40
2022-12-24T07:06:39.418Z,16.68
2022-12-24T07:07:20.412Z,16.56
2022-12-24T07:08:01.764Z,16.45
2022-12-24T07:08:43.335Z,16.13
2022-12-24T07:09:26.055Z,15.51
2022-12-24T07:10:07.296Z,15.23
2022-12-24T07:10:53.780Z,14.16
2022-12-24T07:11:34.327Z,13.57
2022-12-24T07:12:14.407Z,13.07
2022-12-24T07:12:55.313Z,12.34
2022-12-24T07:13:35.382Z,11.88
2022-12-24T07:14:16.327Z,11.89
2022-12-24T07:14:56.364Z,12.04
2022-12-24T07:15:37.323Z,12.39
2022-12-24T07:16:17.749Z,12.24
2022-12-24T07:16:59.598Z,12.60
2022-12-24T07:17:40.438Z,13.23
2022-12-24T07:18:20.380Z,13.88
2022-12-24T07:19:01.438Z,12.94
2022-12-24T07:19:42.319Z,12.46
2022-12-24T07:20:22.359Z,12.18
2022-12-24T07:21:02.285Z,12.04
2022-12-24T07:21:42.389Z,11.51
2022-12-24T07:22:22.303Z,11.50
2022-12-24T07:23:02.622Z,11.41
2022-12-24T07:23:43.314Z,11.01
2022-12-24T07:24:23.518Z,10.98
2022-12-24T07:25:03.347Z,11.02
2022-12-24T07:25:43.464Z,10.51
2022-12-24T07:26:23.328Z,10.60
2022-12-24T07:27:03.423Z,9.80
2022-12-24T07:27:44.294Z,9.59
2022-12-24T07:28:28.068Z,9.89
2022-12-24T07:29:08.327Z,10.14
2022-12-24T07:29:49.403Z,10.19
2022-12-24T07:30:30.333Z,10.16
2022-12-24T07:31:11.593Z,10.02
2022-12-24T07:31:52.380Z,10.06
2022-12-24T07:32:32.488Z,9.93
2022-12-24T07:33:13.323Z,10.11
2022-12-24T07:33:53.486Z,10.11
2022-12-24T07:34:33.311Z,10.21
2022-12-24T07:35:14.417Z,9.50
2022-12-24T07:35:56.015Z,9.61
2022-12-24T07:36:36.370Z,9.50
2022-12-24T07:37:16.353Z,9.99
2022-12-24T07:37:57.390Z,10.07
2022-12-24T07:38:39.279Z,9.79
2022-12-24T07:39:19.408Z,9.89
2022-12-24T07:39:59.306Z,10.05
2022-12-24T07:40:41.489Z,10.09
2022-12-24T07:41:22.275Z,10.41
2022-12-24T07:42:02.425Z,10.49
2022-12-24T07:42:43.274Z,10.75
2022-12-24T07:43:24.053Z,10.65
2022-12-24T07:44:04.286Z,10.94
2022-12-24T07:44:44.456Z,11.20
2022-12-24T07:45:25.316Z,11.01
2022-12-24T07:46:05.406Z,11.25
2022-12-24T07:46:46.422Z,11.77
2022-12-24T07:47:27.467Z,11.73
2022-12-24T07:48:07.249Z,11.66
2022-12-24T07:48:47.344Z,11.05
2022-12-24T07:49:28.270Z,11.29
2022-12-24T07:50:12.487Z,11.60
2022-12-24T07:50:53.382Z,11.73
2022-12-24T07:51:33.403Z,11.49
2022-12-24T07:52:14.311Z,11.19
2022-12-24T07:52:54.406Z,11.13
2022-12-24T07:53:37.274Z,10.80
2022-12-24T07:54:17.355Z,10.86
2022-12-24T07:54:58.262Z,11.15
2022-12-24T07:55:38.383Z,10.95
2022-12-24T07:56:21.321Z,10.75
2022-12-24T07:57:05.014Z,10.71
2022-12-24T07:57:46.543Z,10.99
2022-12-24T07:58:26.393Z,10.69
2022-12-24T07:59:07.270Z,11.48
2022-12-24T07:59:47.335Z,11.52
2022-12-24T08:00:28.338Z,11.11
2022-12-24T08:01:08.382Z,10.30
2022-12-24T08:01:49.387Z,10.06
2022-12-24T08:02:29.553Z,9.89
2022-12-24T08:03:09.425Z,9.82
2022-12-24T08:04:03.384Z,9.82
2022-12-24T08:04:44.297Z,9.85
2022-12-24T08:05:27.464Z,10.11
2022-12-24T08:06:10.247Z,9.86
2022-12-24T08:07:00.297Z,9.99
2022-12-24T08:07:54.250Z,10.25
2022-12-24T08:08:48.277Z,10.23
2022-12-24T08:09:47.313Z,10.29
2022-12-24T08:10:41.277Z,10.99
2022-12-24T08:11:35.272Z,11.73
2022-12-24T08:12:23.306Z,11.81
2022-12-24T08:12:57.334Z,11.57
2022-12-24T08:13:44.242Z,11.86
2022-12-24T08:14:18.308Z,11.81
2022-12-24T08:15:06.263Z,11.76
2022-12-24T08:15:40.362Z,11.34
2022-12-24T08:16:27.316Z,11.55
2022-12-24T08:17:01.312Z,11.00
2022-12-24T08:17:48.288Z,10.94
2022-12-24T08:18:22.295Z,10.85
2022-12-24T08:19:09.253Z,10.94
2022-12-24T08:19:43.361Z,10.56
2022-12-24T08:20:32.280Z,10.07
2022-12-24T08:21:06.311Z,10.05
2022-12-24T08:21:53.245Z,9.91
2022-12-24T08:22:27.328Z,9.80
2022-12-24T08:23:07.338Z,9.84
2022-12-24T08:23:48.474Z,9.68
2022-12-24T08:24:28.273Z,9.56
2022-12-24T08:25:08.303Z,9.85
2022-12-24T08:25:51.310Z,9.74
2022-12-24T08:26:31.373Z,9.54
2022-12-24T08:27:11.323Z,9.80
2022-12-24T08:27:51.529Z,9.79
2022-12-24T08:28:32.254Z,9.93
2022-12-24T08:29:13.312Z,10.01
2022-12-24T08:29:54.295Z,10.34
2022-12-24T08:30:35.382Z,9.94
2022-12-24T08:31:16.306Z,9.65
2022-12-24T08:31:56.361Z,9.76
2022-12-24T08:32:37.269Z,9.74
2022-12-24T08:33:18.486Z,9.93
2022-12-24T08:33:59.288Z,10.20
2022-12-24T08:34:39.297Z,10.16
2022-12-24T08:35:20.231Z,9.96
2022-12-24T08:36:02.803Z,9.74
2022-12-24T08:36:43.242Z,10.31
2022-12-24T08:37:24.378Z,10.51
2022-12-24T08:38:05.230Z,10.35
2022-12-24T08:38:45.386Z,9.76
2022-12-24T08:39:26.236Z,9.91
2022-12-24T08:40:06.284Z,10.09
2022-12-24T08:40:46.217Z,10.13
2022-12-24T08:41:26.311Z,10.31
2022-12-24T08:42:06.285Z,10.29
2022-12-24T08:42:46.500Z,10.06
2022-12-24T08:43:27.214Z,9.59
2022-12-24T08:44:07.375Z,9.48
2022-12-24T08:44:47.244Z,9.66
2022-12-24T08:45:28.420Z,9.75
2022-12-24T08:46:12.267Z,9.61
2022-12-24T08:46:52.297Z,9.31
2022-12-24T08:47:32.225Z,9.50
2022-12-24T08:48:14.595Z,9.50
2022-12-24T08:48:55.273Z,9.64
2022-12-24T08:49:35.821Z,9.79
2022-12-24T08:50:18.313Z,9.93
2022-12-24T08:50:58.451Z,10.25
2022-12-24T08:51:39.348Z,10.43
2022-12-24T08:52:19.279Z,19.58
2022-12-24T08:53:00.361Z,53.47
2022-12-24T08:53:42.378Z,66.21
2022-12-24T08:54:23.255Z,60.04
2022-12-24T08:55:03.419Z,85.28
2022-12-24T08:55:45.294Z,82.93
2022-12-24T08:56:28.625Z,37.14
2022-12-24T08:57:09.264Z,14.84
2022-12-24T08:57:49.422Z,10.13
2022-12-24T08:58:30.224Z,9.69
2022-12-24T08:59:10.299Z,9.11
2022-12-24T08:59:51.388Z,8.99
2022-12-24T09:00:31.255Z,9.49
2022-12-24T09:01:24.312Z,10.57
2022-12-24T09:02:04.483Z,10.76
2022-12-24T09:02:44.374Z,11.13
2022-12-24T09:03:28.084Z,11.88
2022-12-24T09:04:09.234Z,12.07
2022-12-24T09:04:50.450Z,12.16
2022-12-24T09:05:31.216Z,12.35
2022-12-24T09:06:14.755Z,12.19
2022-12-24T09:06:55.261Z,11.93
2022-12-24T09:07:35.272Z,12.01
2022-12-24T09:08:16.238Z,11.46
2022-12-24T09:08:56.291Z,11.46
2022-12-24T09:09:38.202Z,12.43
2022-12-24T09:10:19.471Z,12.99
2022-12-24T09:11:00.229Z,12.21
2022-12-24T09:11:42.298Z,12.29
2022-12-24T09:12:23.454Z,12.60
2022-12-24T09:13:04.345Z,12.94
2022-12-24T09:13:45.202Z,13.34
2022-12-24T09:14:26.301Z,13.45
2022-12-24T09:15:06.282Z,12.93
2022-12-24T09:15:46.328Z,12.49
2022-12-24T09:16:26.399Z,12.54
2022-12-24T09:17:06.398Z,12.50
2022-12-24T09:17:47.275Z,12.30
2022-12-24T09:18:27.579Z,12.24
2022-12-24T09:19:07.263Z,13.00
2022-12-24T09:19:47.292Z,13.69
2022-12-24T09:20:27.166Z,14.11
2022-12-24T09:21:11.475Z,15.14
2022-12-24T09:21:52.214Z,15.80
2022-12-24T09:22:33.392Z,14.34
2022-12-24T09:23:14.277Z,13.41
2022-12-24T09:23:55.337Z,12.82
2022-12-24T09:24:36.277Z,12.45